createdAt,value
2017-03-08T00:00:03.798Z,0
2017-03-08T00:01:14.635Z,0
2017-03-08T00:02:24.843Z,0
2017-03-08T00:03:35.045Z,0
2017-03-08T00:04:45.261Z,0
2017-03-08T00:05:55.896Z,0
2017-03-08T00:07:06.147Z,0
2017-03-08T00:08:15.908Z,0
2017-03-08T00:09:26.126Z,0
2017-03-08T00:10:35.899Z,0
2017-03-08T00:11:45.648Z,0
2017-03-08T00:12:55.900Z,0
2017-03-08T00:14:06.118Z,0
2017-03-08T00:15:15.907Z,0
2017-03-08T00:16:25.253Z,0
2017-03-08T00:17:34.597Z,0
2017-03-08T00:18:43.976Z,0
2017-03-08T00:19:54.384Z,0
2017-03-08T00:21:04.189Z,0
2017-03-08T00:22:13.525Z,0
2017-03-08T00:23:23.752Z,0
2017-03-08T00:24:33.728Z,0
2017-03-08T00:25:43.934Z,0
2017-03-08T00:26:53.691Z,0
2017-03-08T00:28:03.453Z,0
2017-03-08T00:29:13.229Z,0
2017-03-08T00:30:23.145Z,0
2017-03-08T00:31:33.780Z,0
2017-03-08T00:32:43.101Z,0
2017-03-08T00:33:52.850Z,0
2017-03-08T00:35:02.596Z,0
2017-03-08T00:36:13.279Z,0
2017-03-08T00:37:23.910Z,0
2017-03-08T00:38:33.227Z,0
2017-03-08T00:39:42.992Z,0
2017-03-08T00:40:52.781Z,0
2017-03-08T00:42:02.606Z,0
2017-03-08T00:43:12.381Z,0
2017-03-08T00:44:22.141Z,0
2017-03-08T00:45:31.902Z,0
2017-03-08T00:46:42.104Z,0
2017-03-08T00:47:51.933Z,0
2017-03-08T00:49:02.588Z,0
2017-03-08T00:50:12.331Z,0
2017-03-08T00:51:22.511Z,0
2017-03-08T00:52:32.293Z,0
2017-03-08T00:53:42.105Z,0
2017-03-08T00:54:52.763Z,0
2017-03-08T00:56:02.969Z,0
2017-03-08T00:57:12.750Z,0
2017-03-08T00:58:22.558Z,0
2017-03-08T00:59:32.801Z,0
2017-03-08T01:00:42.574Z,0
2017-03-08T01:01:51.909Z,0
2017-03-08T01:03:01.672Z,0
2017-03-08T01:04:11.885Z,0
2017-03-08T01:05:22.583Z,0
2017-03-08T01:06:32.330Z,0
2017-03-08T01:07:42.535Z,0
2017-03-08T01:08:53.206Z,0
2017-03-08T01:10:03.398Z,0
2017-03-08T01:11:13.743Z,0
2017-03-08T01:12:23.516Z,0
2017-03-08T01:13:33.270Z,0
2017-03-08T01:14:43.028Z,0
2017-03-08T01:15:53.229Z,0
2017-03-08T01:17:03.580Z,0
2017-03-08T01:18:13.788Z,0
2017-03-08T01:19:23.993Z,0
2017-03-08T01:20:33.325Z,0
2017-03-08T01:21:43.083Z,0
2017-03-08T01:22:52.451Z,0
2017-03-08T01:24:02.640Z,0
2017-03-08T01:25:12.381Z,0
2017-03-08T01:26:22.583Z,0
2017-03-08T01:27:32.333Z,0
2017-03-08T01:28:42.122Z,0
2017-03-08T01:29:52.364Z,0
2017-03-08T01:31:02.561Z,0
2017-03-08T01:32:12.768Z,0
2017-03-08T01:33:22.537Z,0
2017-03-08T01:34:33.237Z,0
2017-03-08T01:35:43.462Z,0
2017-03-08T01:36:53.343Z,0
2017-03-08T01:38:03.536Z,0
2017-03-08T01:39:13.315Z,0
2017-03-08T01:40:24.006Z,0
2017-03-08T01:41:33.326Z,0
2017-03-08T01:42:43.075Z,0
2017-03-08T01:43:52.890Z,0
2017-03-08T01:45:03.553Z,0
2017-03-08T01:46:14.296Z,0
2017-03-08T01:47:24.053Z,0
2017-03-08T01:48:33.822Z,0
2017-03-08T01:49:43.572Z,0
2017-03-08T01:50:52.909Z,0
2017-03-08T01:52:02.730Z,0
2017-03-08T01:53:13.362Z,0
2017-03-08T01:54:23.535Z,0
2017-03-08T01:55:33.758Z,0
2017-03-08T01:56:43.513Z,0
2017-03-08T01:57:53.744Z,0
2017-03-08T01:59:03.489Z,0
2017-03-08T02:00:13.690Z,0
2017-03-08T02:01:24.792Z,0
2017-03-08T02:02:34.121Z,0
2017-03-08T02:03:43.494Z,0
2017-03-08T02:04:53.285Z,0
2017-03-08T02:06:03.924Z,0
2017-03-08T02:07:13.684Z,0
2017-03-08T02:08:23.010Z,0
2017-03-08T02:09:32.404Z,0
2017-03-08T02:10:42.164Z,0
2017-03-08T02:11:52.793Z,0
2017-03-08T02:13:04.427Z,0
2017-03-08T02:14:14.633Z,0
2017-03-08T02:15:25.350Z,0
2017-03-08T02:16:35.107Z,0
2017-03-08T02:17:44.898Z,0
2017-03-08T02:18:55.101Z,0
2017-03-08T02:20:04.855Z,0
2017-03-08T02:21:14.688Z,0
2017-03-08T02:22:24.933Z,0
2017-03-08T02:23:35.596Z,0
2017-03-08T02:24:45.803Z,0
2017-03-08T02:25:55.564Z,0
2017-03-08T02:27:05.852Z,0
2017-03-08T02:28:16.067Z,0
2017-03-08T02:29:25.844Z,0
2017-03-08T02:30:35.626Z,0
2017-03-08T02:31:45.422Z,0
2017-03-08T02:32:55.227Z,0
2017-03-08T02:34:04.989Z,0
2017-03-08T02:35:14.766Z,0
2017-03-08T02:36:24.543Z,0
2017-03-08T02:37:34.300Z,0
2017-03-08T02:38:44.990Z,0
2017-03-08T02:39:54.770Z,0
2017-03-08T02:41:05.032Z,0
2017-03-08T02:42:14.794Z,0
2017-03-08T02:43:24.559Z,0
2017-03-08T02:44:34.378Z,0
2017-03-08T02:45:44.577Z,0
2017-03-08T02:46:54.354Z,0
2017-03-08T02:48:04.563Z,0
2017-03-08T02:49:13.872Z,0
2017-03-08T02:50:23.682Z,0
2017-03-08T02:51:33.439Z,0
2017-03-08T02:52:43.203Z,0
2017-03-08T02:53:52.513Z,0
2017-03-08T02:55:03.162Z,0
2017-03-08T02:56:12.974Z,0
2017-03-08T02:57:23.181Z,0
2017-03-08T02:58:32.948Z,0
2017-03-08T02:59:43.155Z,0
2017-03-08T03:00:52.920Z,0
2017-03-08T03:02:02.297Z,0
2017-03-08T03:03:12.540Z,0
2017-03-08T03:04:22.772Z,0
2017-03-08T03:05:32.529Z,0
2017-03-08T03:06:42.294Z,0
2017-03-08T03:07:52.139Z,0
2017-03-08T03:09:02.349Z,0
2017-03-08T03:10:12.118Z,0
2017-03-08T03:11:21.459Z,0
2017-03-08T03:12:31.219Z,0
2017-03-08T03:13:41.477Z,0
2017-03-08T03:14:51.698Z,0
2017-03-08T03:16:01.475Z,0
2017-03-08T03:17:11.244Z,0
2017-03-08T03:18:21.019Z,0
2017-03-08T03:19:30.847Z,0
2017-03-08T03:20:40.648Z,0
2017-03-08T03:21:50.414Z,0
2017-03-08T03:23:00.191Z,0
2017-03-08T03:24:10.408Z,0
2017-03-08T03:25:19.792Z,0
2017-03-08T03:26:29.995Z,0
2017-03-08T03:27:39.755Z,0
2017-03-08T03:28:49.084Z,0
2017-03-08T03:29:58.404Z,0
2017-03-08T03:31:09.311Z,0
2017-03-08T03:32:19.068Z,0
2017-03-08T03:33:28.837Z,0
2017-03-08T03:34:38.610Z,0
2017-03-08T03:35:47.928Z,0
2017-03-08T03:36:57.313Z,0
2017-03-08T03:38:07.094Z,0
2017-03-08T03:39:16.840Z,0
2017-03-08T03:40:26.608Z,0
2017-03-08T03:41:36.366Z,0
2017-03-08T03:42:46.622Z,0
2017-03-08T03:43:56.372Z,0
2017-03-08T03:45:06.153Z,0
2017-03-08T03:46:16.799Z,0
2017-03-08T03:47:26.140Z,0
2017-03-08T03:48:35.953Z,0
2017-03-08T03:49:45.718Z,0
2017-03-08T03:50:55.475Z,0
2017-03-08T03:52:05.715Z,0
2017-03-08T03:53:15.500Z,0
2017-03-08T03:54:25.337Z,0
2017-03-08T03:55:35.163Z,0
2017-03-08T03:56:44.941Z,0
2017-03-08T03:57:54.734Z,0
2017-03-08T03:59:04.076Z,0
2017-03-08T04:00:14.329Z,0
2017-03-08T04:01:24.098Z,0
2017-03-08T04:02:33.850Z,0
2017-03-08T04:03:43.612Z,0
2017-03-08T04:04:53.385Z,0
2017-03-08T04:06:03.211Z,0
2017-03-08T04:07:12.520Z,0
2017-03-08T04:08:22.280Z,0
2017-03-08T04:09:32.038Z,0
2017-03-08T04:10:41.378Z,0
2017-03-08T04:11:52.083Z,0
2017-03-08T04:13:02.297Z,0
2017-03-08T04:14:12.069Z,0
2017-03-08T04:15:22.296Z,0
2017-03-08T04:16:32.053Z,0
2017-03-08T04:17:42.319Z,0
2017-03-08T04:18:52.124Z,0
2017-03-08T04:20:01.901Z,0
2017-03-08T04:21:11.694Z,0
2017-03-08T04:22:21.467Z,0
2017-03-08T04:23:31.277Z,0
2017-03-08T04:24:41.465Z,0
2017-03-08T04:25:51.231Z,0
2017-03-08T04:27:00.992Z,0
2017-03-08T04:28:10.319Z,0
2017-03-08T04:29:20.714Z,0
2017-03-08T04:30:30.483Z,0
2017-03-08T04:31:40.233Z,0
2017-03-08T04:32:49.999Z,0
2017-03-08T04:34:00.217Z,0
2017-03-08T04:35:10.032Z,0
2017-03-08T04:36:20.242Z,0
2017-03-08T04:37:29.567Z,0
2017-03-08T04:38:39.772Z,0
2017-03-08T04:39:49.568Z,0
2017-03-08T04:40:59.627Z,0
2017-03-08T04:42:09.388Z,0
2017-03-08T04:43:19.149Z,0
2017-03-08T04:44:29.818Z,0
2017-03-08T04:45:39.587Z,0
2017-03-08T04:46:49.844Z,0
2017-03-08T04:47:59.595Z,0
2017-03-08T04:49:09.462Z,0
2017-03-08T04:50:18.795Z,0
2017-03-08T04:51:28.559Z,0
2017-03-08T04:52:38.386Z,0
2017-03-08T04:53:47.735Z,0
2017-03-08T04:54:57.492Z,0
2017-03-08T04:56:07.266Z,0
2017-03-08T04:57:16.579Z,0
2017-03-08T04:58:26.412Z,0
2017-03-08T04:59:37.069Z,0
2017-03-08T05:00:46.846Z,0
2017-03-08T05:01:56.611Z,0
2017-03-08T05:03:06.825Z,0
2017-03-08T05:04:16.658Z,0
2017-03-08T05:05:26.423Z,0
2017-03-08T05:06:37.540Z,0
2017-03-08T05:07:47.300Z,0
2017-03-08T05:08:57.939Z,0
2017-03-08T05:10:07.323Z,0
2017-03-08T05:11:17.966Z,0
2017-03-08T05:12:27.722Z,0
2017-03-08T05:13:37.043Z,0
2017-03-08T05:14:46.813Z,0
2017-03-08T05:15:57.086Z,0
2017-03-08T05:17:06.854Z,0
2017-03-08T05:18:17.071Z,0
2017-03-08T05:19:26.858Z,0
2017-03-08T05:20:37.070Z,0
2017-03-08T05:21:46.892Z,0
2017-03-08T05:22:57.100Z,0
2017-03-08T05:24:06.851Z,4
2017-03-08T05:25:16.647Z,4
2017-03-08T05:26:25.993Z,0
2017-03-08T05:27:35.362Z,4
2017-03-08T05:28:45.130Z,0
2017-03-08T05:29:55.768Z,4
2017-03-08T05:31:05.541Z,4
2017-03-08T05:32:15.306Z,4
2017-03-08T05:33:25.156Z,8
2017-03-08T05:34:34.913Z,8
2017-03-08T05:35:44.246Z,12
2017-03-08T05:36:54.034Z,16
2017-03-08T05:38:03.856Z,16
2017-03-08T05:39:13.222Z,20
2017-03-08T05:40:22.987Z,24
2017-03-08T05:41:33.200Z,32
2017-03-08T05:42:42.957Z,36
2017-03-08T05:43:52.293Z,40
2017-03-08T05:45:02.118Z,44
2017-03-08T05:46:11.475Z,52
2017-03-08T05:47:21.682Z,60
2017-03-08T05:48:31.447Z,68
2017-03-08T05:49:42.081Z,80
2017-03-08T05:50:51.887Z,88
2017-03-08T05:52:02.970Z,96
2017-03-08T05:53:12.731Z,108
2017-03-08T05:54:22.932Z,116
2017-03-08T05:55:32.306Z,128
2017-03-08T05:56:42.127Z,132
2017-03-08T05:57:52.352Z,148
2017-03-08T05:59:02.113Z,164
2017-03-08T06:00:11.878Z,180
2017-03-08T06:01:21.228Z,208
2017-03-08T06:02:31.065Z,232
2017-03-08T06:03:40.398Z,256
2017-03-08T06:04:50.162Z,276
2017-03-08T06:06:00.800Z,300
2017-03-08T06:07:10.589Z,316
2017-03-08T06:08:20.405Z,340
2017-03-08T06:09:31.040Z,356
2017-03-08T06:10:40.793Z,380
2017-03-08T06:11:51.465Z,416
2017-03-08T06:13:01.664Z,448
2017-03-08T06:14:11.473Z,476
2017-03-08T06:15:21.234Z,492
2017-03-08T06:16:31.011Z,520
2017-03-08T06:17:40.780Z,552
2017-03-08T06:18:50.102Z,584
2017-03-08T06:19:59.479Z,608
2017-03-08T06:21:08.792Z,628
2017-03-08T06:22:19.469Z,648
2017-03-08T06:23:29.230Z,676
2017-03-08T06:24:39.014Z,700
2017-03-08T06:25:49.260Z,720
2017-03-08T06:26:59.090Z,744
2017-03-08T06:28:09.302Z,772
2017-03-08T06:29:19.072Z,808
2017-03-08T06:30:28.858Z,844
2017-03-08T06:31:38.682Z,868
2017-03-08T06:32:48.478Z,884
2017-03-08T06:33:58.689Z,892
2017-03-08T06:35:08.442Z,916
2017-03-08T06:36:18.214Z,976
2017-03-08T06:37:28.481Z,1072
2017-03-08T06:38:38.265Z,1176
2017-03-08T06:39:48.475Z,1260
2017-03-08T06:40:58.668Z,1300
2017-03-08T06:42:08.432Z,1316
2017-03-08T06:43:19.143Z,1320
2017-03-08T06:44:28.904Z,1332
2017-03-08T06:45:39.106Z,1352
2017-03-08T06:46:48.872Z,1344
2017-03-08T06:47:59.095Z,1332
2017-03-08T06:49:08.956Z,1304
2017-03-08T06:50:18.758Z,1272
2017-03-08T06:51:28.969Z,1248
2017-03-08T06:52:39.172Z,1200
2017-03-08T06:53:48.949Z,1164
2017-03-08T06:54:58.774Z,1136
2017-03-08T06:56:08.564Z,1120
2017-03-08T06:57:18.342Z,1128
2017-03-08T06:58:28.114Z,1124
2017-03-08T06:59:37.863Z,1104
2017-03-08T07:00:47.680Z,1112
2017-03-08T07:01:57.460Z,1120
2017-03-08T07:03:07.671Z,1108
2017-03-08T07:04:17.011Z,1148
2017-03-08T07:05:27.235Z,1176
2017-03-08T07:06:38.526Z,1216
2017-03-08T07:07:48.739Z,1196
2017-03-08T07:08:58.953Z,1208
2017-03-08T07:10:08.726Z,1316
2017-03-08T07:11:18.939Z,1356
2017-03-08T07:12:28.742Z,1320
2017-03-08T07:13:38.509Z,1340
2017-03-08T07:14:48.731Z,1416
2017-03-08T07:15:58.984Z,1468
2017-03-08T07:17:08.765Z,1484
2017-03-08T07:18:18.581Z,1468
2017-03-08T07:19:28.771Z,1420
2017-03-08T07:20:38.557Z,1448
2017-03-08T07:21:48.321Z,1548
2017-03-08T07:22:58.539Z,1652
2017-03-08T07:24:08.476Z,1712
2017-03-08T07:25:18.689Z,1712
2017-03-08T07:26:28.449Z,1772
2017-03-08T07:27:38.639Z,1860
2017-03-08T07:28:48.409Z,1912
2017-03-08T07:29:58.232Z,1928
2017-03-08T07:31:08.015Z,1904
2017-03-08T07:32:17.356Z,1880
2017-03-08T07:33:27.117Z,1800
2017-03-08T07:34:36.890Z,1672
2017-03-08T07:35:47.160Z,1628
2017-03-08T07:36:56.507Z,1672
2017-03-08T07:38:06.710Z,1776
2017-03-08T07:39:16.464Z,2008
2017-03-08T07:40:26.244Z,2280
2017-03-08T07:41:36.057Z,2440
2017-03-08T07:42:45.830Z,2484
2017-03-08T07:43:55.587Z,2500
2017-03-08T07:45:05.349Z,2512
2017-03-08T07:46:15.114Z,2520
2017-03-08T07:47:24.939Z,2544
2017-03-08T07:48:34.725Z,2628
2017-03-08T07:49:44.490Z,2780
2017-03-08T07:50:54.253Z,2944
2017-03-08T07:52:04.039Z,3028
2017-03-08T07:53:13.401Z,3072
2017-03-08T07:54:23.645Z,3148
2017-03-08T07:55:34.298Z,3156
2017-03-08T07:56:44.496Z,3040
2017-03-08T07:57:54.261Z,2936
2017-03-08T07:59:04.227Z,2968
2017-03-08T08:00:14.451Z,3144
2017-03-08T08:01:24.233Z,3244
2017-03-08T08:02:34.002Z,3284
2017-03-08T08:03:43.312Z,3316
2017-03-08T08:04:53.668Z,3236
2017-03-08T08:06:03.426Z,3328
2017-03-08T08:07:13.627Z,3552
2017-03-08T08:08:23.867Z,3748
2017-03-08T08:09:34.062Z,3876
2017-03-08T08:10:44.042Z,3848
2017-03-08T08:11:53.828Z,3640
2017-03-08T08:13:03.589Z,3556
2017-03-08T08:14:13.357Z,3548
2017-03-08T08:15:23.168Z,3552
2017-03-08T08:16:33.421Z,3468
2017-03-08T08:17:44.097Z,3436
2017-03-08T08:18:54.741Z,3424
2017-03-08T08:20:04.636Z,3204
2017-03-08T08:21:14.413Z,2872
2017-03-08T08:22:24.671Z,2620
2017-03-08T08:23:34.431Z,2524
2017-03-08T08:24:44.209Z,2588
2017-03-08T08:25:53.962Z,2736
2017-03-08T08:27:03.723Z,2808
2017-03-08T08:28:13.687Z,2740
2017-03-08T08:29:24.328Z,2684
2017-03-08T08:30:34.522Z,2784
2017-03-08T08:31:44.292Z,2852
2017-03-08T08:32:54.089Z,2728
2017-03-08T08:34:03.895Z,2552
2017-03-08T08:35:13.224Z,2512
2017-03-08T08:36:23.442Z,2564
2017-03-08T08:37:33.224Z,2592
2017-03-08T08:38:43.437Z,2600
2017-03-08T08:39:53.892Z,2620
2017-03-08T08:41:03.680Z,2648
2017-03-08T08:42:13.916Z,2692
2017-03-08T08:43:23.688Z,2804
2017-03-08T08:44:33.921Z,2940
2017-03-08T08:45:43.730Z,3012
2017-03-08T08:46:53.489Z,3012
2017-03-08T08:48:03.268Z,3060
2017-03-08T08:49:12.602Z,3240
2017-03-08T08:50:22.361Z,3504
2017-03-08T08:51:32.624Z,3692
2017-03-08T08:52:42.400Z,3540
2017-03-08T08:53:52.168Z,3280
2017-03-08T08:55:01.939Z,3232
2017-03-08T08:56:11.267Z,3488
2017-03-08T08:57:21.513Z,3804
2017-03-08T08:58:31.714Z,4104
2017-03-08T08:59:41.041Z,4196
2017-03-08T09:00:51.275Z,4192
2017-03-08T09:02:01.483Z,4168
2017-03-08T09:03:11.770Z,4168
2017-03-08T09:04:22.001Z,4004
2017-03-08T09:05:31.350Z,3780
2017-03-08T09:06:41.550Z,3732
2017-03-08T09:07:51.311Z,3520
2017-03-08T09:09:01.574Z,3016
2017-03-08T09:10:11.329Z,2780
2017-03-08T09:11:21.548Z,2664
2017-03-08T09:12:31.341Z,3264
2017-03-08T09:13:41.114Z,3512
2017-03-08T09:14:51.040Z,3712
2017-03-08T09:16:00.805Z,3680
2017-03-08T09:17:10.590Z,3524
2017-03-08T09:18:20.374Z,3316
2017-03-08T09:19:30.588Z,3156
2017-03-08T09:20:40.404Z,3028
2017-03-08T09:21:51.058Z,2984
2017-03-08T09:23:01.288Z,3044
2017-03-08T09:24:11.079Z,3116
2017-03-08T09:25:21.726Z,3152
2017-03-08T09:26:31.995Z,3120
2017-03-08T09:27:42.209Z,3080
2017-03-08T09:28:51.982Z,3060
2017-03-08T09:30:01.303Z,3024
2017-03-08T09:31:11.110Z,3012
2017-03-08T09:32:20.945Z,3000
2017-03-08T09:33:30.709Z,2980
2017-03-08T09:34:40.923Z,2952
2017-03-08T09:35:50.717Z,2932
2017-03-08T09:37:00.043Z,2944
2017-03-08T09:38:09.858Z,2988
2017-03-08T09:39:19.655Z,3020
2017-03-08T09:40:29.878Z,3028
2017-03-08T09:41:39.639Z,3020
2017-03-08T09:42:50.323Z,3004
2017-03-08T09:44:00.142Z,2984
2017-03-08T09:45:09.958Z,2956
2017-03-08T09:46:20.164Z,2912
2017-03-08T09:47:30.376Z,2884
2017-03-08T09:48:40.154Z,2856
2017-03-08T09:49:50.403Z,2848
2017-03-08T09:51:00.607Z,2860
2017-03-08T09:52:10.818Z,2924
2017-03-08T09:53:20.643Z,3048
2017-03-08T09:54:30.848Z,3212
2017-03-08T09:55:40.700Z,3420
2017-03-08T09:56:50.474Z,3632
2017-03-08T09:58:00.690Z,3776
2017-03-08T09:59:11.336Z,3864
2017-03-08T10:00:20.654Z,3912
2017-03-08T10:01:30.921Z,3944
2017-03-08T10:02:40.264Z,3932
2017-03-08T10:03:50.029Z,3868
2017-03-08T10:05:00.230Z,3772
2017-03-08T10:06:09.996Z,3708
2017-03-08T10:07:19.808Z,3756
2017-03-08T10:08:29.575Z,3932
2017-03-08T10:09:39.795Z,4180
2017-03-08T10:10:49.565Z,4456
2017-03-08T10:11:59.366Z,4668
2017-03-08T10:13:10.083Z,4964
2017-03-08T10:14:19.406Z,5456
2017-03-08T10:15:30.057Z,6140
2017-03-08T10:16:39.874Z,6432
2017-03-08T10:17:50.071Z,6240
2017-03-08T10:18:59.876Z,6232
2017-03-08T10:20:09.226Z,6388
2017-03-08T10:21:19.419Z,6164
2017-03-08T10:22:29.192Z,6044
2017-03-08T10:23:38.992Z,6016
2017-03-08T10:24:49.698Z,5996
2017-03-08T10:25:59.910Z,5932
2017-03-08T10:27:09.677Z,5836
2017-03-08T10:28:19.438Z,5836
2017-03-08T10:29:29.647Z,5688
2017-03-08T10:30:39.916Z,5780
2017-03-08T10:31:49.690Z,5800
2017-03-08T10:32:59.891Z,5660
2017-03-08T10:34:10.116Z,4740
2017-03-08T10:35:19.909Z,4648
2017-03-08T10:36:29.331Z,5388
2017-03-08T10:37:39.090Z,5620
2017-03-08T10:38:48.873Z,5628
2017-03-08T10:39:59.078Z,5316
2017-03-08T10:41:08.843Z,4528
2017-03-08T10:42:19.320Z,5140
2017-03-08T10:43:29.081Z,4796
2017-03-08T10:44:39.721Z,4540
2017-03-08T10:45:49.474Z,4612
2017-03-08T10:46:59.677Z,5204
2017-03-08T10:48:09.484Z,4988
2017-03-08T10:49:19.247Z,5528
2017-03-08T10:50:29.484Z,4832
2017-03-08T10:51:39.246Z,5020
2017-03-08T10:52:49.010Z,5056
2017-03-08T10:53:58.834Z,5552
2017-03-08T10:55:08.597Z,5316
2017-03-08T10:56:18.809Z,5264
2017-03-08T10:57:28.572Z,4856
2017-03-08T10:58:38.337Z,4760
2017-03-08T10:59:47.726Z,4524
2017-03-08T11:00:57.500Z,4556
2017-03-08T11:02:07.290Z,4556
2017-03-08T11:03:17.512Z,4320
2017-03-08T11:04:28.163Z,4216
2017-03-08T11:05:37.531Z,4140
2017-03-08T11:06:47.295Z,4204
2017-03-08T11:07:57.519Z,4316
2017-03-08T11:09:07.744Z,4388
2017-03-08T11:10:17.548Z,4252
2017-03-08T11:11:28.247Z,3988
2017-03-08T11:12:38.455Z,3916
2017-03-08T11:13:48.219Z,4092
2017-03-08T11:14:58.426Z,4204
2017-03-08T11:16:08.195Z,3984
2017-03-08T11:17:18.123Z,3820
2017-03-08T11:18:27.892Z,3600
2017-03-08T11:19:37.674Z,3372
2017-03-08T11:20:47.872Z,3268
2017-03-08T11:21:57.185Z,3316
2017-03-08T11:23:06.578Z,3448
2017-03-08T11:24:16.352Z,3576
2017-03-08T11:25:26.568Z,3500
2017-03-08T11:26:37.206Z,3184
2017-03-08T11:27:46.523Z,3356
2017-03-08T11:28:57.220Z,3768
2017-03-08T11:30:07.023Z,3704
2017-03-08T11:31:16.789Z,4088
2017-03-08T11:32:26.563Z,3948
2017-03-08T11:33:37.204Z,3868
2017-03-08T11:34:47.054Z,3660
2017-03-08T11:35:57.263Z,3800
2017-03-08T11:37:07.024Z,3724
2017-03-08T11:38:16.787Z,3616
2017-03-08T11:39:26.158Z,3484
2017-03-08T11:40:35.975Z,3472
2017-03-08T11:41:45.725Z,3420
2017-03-08T11:42:55.914Z,3380
2017-03-08T11:44:05.671Z,3484
2017-03-08T11:45:15.433Z,3480
2017-03-08T11:46:25.398Z,3572
2017-03-08T11:47:35.590Z,3568
2017-03-08T11:48:45.358Z,3652
2017-03-08T11:49:56.007Z,3756
2017-03-08T11:51:06.222Z,3848
2017-03-08T11:52:16.019Z,3892
2017-03-08T11:53:25.795Z,3912
2017-03-08T11:54:35.990Z,3952
2017-03-08T11:55:45.765Z,3876
2017-03-08T11:56:56.400Z,3860
2017-03-08T11:58:06.205Z,3856
2017-03-08T11:59:15.973Z,3856
2017-03-08T12:00:26.220Z,3816
2017-03-08T12:01:35.991Z,3696
2017-03-08T12:02:46.186Z,3596
2017-03-08T12:03:56.011Z,3584
2017-03-08T12:05:05.788Z,3608
2017-03-08T12:06:15.529Z,3540
2017-03-08T12:07:25.286Z,3444
2017-03-08T12:08:35.052Z,3436
2017-03-08T12:09:44.881Z,3456
2017-03-08T12:10:55.074Z,3412
2017-03-08T12:12:04.842Z,3364
2017-03-08T12:13:15.069Z,3396
2017-03-08T12:14:25.086Z,3520
2017-03-08T12:15:34.443Z,3632
2017-03-08T12:16:44.209Z,3656
2017-03-08T12:17:54.486Z,3736
2017-03-08T12:19:03.809Z,3988
2017-03-08T12:20:14.044Z,4236
2017-03-08T12:21:24.257Z,4192
2017-03-08T12:22:34.026Z,3888
2017-03-08T12:23:43.839Z,3624
2017-03-08T12:24:53.605Z,3596
2017-03-08T12:26:03.378Z,3708
2017-03-08T12:27:13.178Z,3888
2017-03-08T12:28:24.444Z,3864
2017-03-08T12:29:36.488Z,3812
2017-03-08T12:30:48.045Z,3804
2017-03-08T12:31:59.767Z,3776
2017-03-08T12:33:12.048Z,3652
2017-03-08T12:34:22.682Z,3536
2017-03-08T12:35:32.495Z,3424
2017-03-08T12:36:41.812Z,3324
2017-03-08T12:37:51.594Z,3272
2017-03-08T12:39:01.351Z,3240
2017-03-08T12:40:11.108Z,3236
2017-03-08T12:41:20.918Z,3236
2017-03-08T12:42:30.667Z,3180
2017-03-08T12:43:40.883Z,3116
2017-03-08T12:44:50.666Z,3008
2017-03-08T12:46:00.422Z,2872
2017-03-08T12:47:10.675Z,2844
2017-03-08T12:48:20.424Z,2748
2017-03-08T12:49:30.210Z,2532
2017-03-08T12:50:39.989Z,2508
2017-03-08T12:51:50.211Z,2604
2017-03-08T12:53:00.449Z,2616
2017-03-08T12:54:10.230Z,2456
2017-03-08T12:55:19.551Z,2320
2017-03-08T12:56:29.324Z,2252
2017-03-08T12:57:39.086Z,2232
2017-03-08T12:58:48.914Z,2196
2017-03-08T12:59:59.545Z,2264
2017-03-08T13:01:09.794Z,2332
2017-03-08T13:02:19.583Z,2280
2017-03-08T13:03:29.351Z,2192
2017-03-08T13:04:39.610Z,2196
2017-03-08T13:05:49.358Z,2216
2017-03-08T13:06:59.164Z,2204
2017-03-08T13:08:08.933Z,2188
2017-03-08T13:09:18.710Z,2244
2017-03-08T13:10:28.951Z,2332
2017-03-08T13:11:38.719Z,2396
2017-03-08T13:12:48.921Z,2468
2017-03-08T13:13:58.253Z,2600
2017-03-08T13:15:08.471Z,2652
2017-03-08T13:16:18.301Z,2596
2017-03-08T13:17:28.522Z,2608
2017-03-08T13:18:38.291Z,2760
2017-03-08T13:19:48.491Z,2772
2017-03-08T13:20:58.709Z,2620
2017-03-08T13:22:09.403Z,2528
2017-03-08T13:23:19.189Z,2512
2017-03-08T13:24:28.969Z,2472
2017-03-08T13:25:39.606Z,2424
2017-03-08T13:26:49.356Z,2448
2017-03-08T13:27:59.173Z,2592
2017-03-08T13:29:09.402Z,2784
2017-03-08T13:30:19.383Z,2820
2017-03-08T13:31:29.609Z,2868
2017-03-08T13:32:39.002Z,2896
2017-03-08T13:33:49.011Z,2888
2017-03-08T13:34:58.831Z,2848
2017-03-08T13:36:09.733Z,2804
2017-03-08T13:37:19.325Z,2500
2017-03-08T13:38:29.232Z,2612
2017-03-08T13:39:39.043Z,2604
2017-03-08T13:40:50.144Z,2548
2017-03-08T13:42:01.343Z,2440
2017-03-08T13:43:10.716Z,2356
2017-03-08T13:44:21.208Z,2212
2017-03-08T13:45:33.233Z,2096
2017-03-08T13:46:44.334Z,1900
2017-03-08T13:47:55.731Z,1880
2017-03-08T13:49:07.076Z,1840
2017-03-08T13:50:20.082Z,1824
2017-03-08T13:51:35.407Z,1764
2017-03-08T13:52:48.374Z,1660
2017-03-08T13:54:00.659Z,1564
2017-03-08T13:55:12.260Z,1512
2017-03-08T13:56:24.305Z,1648
2017-03-08T13:57:39.346Z,1608
2017-03-08T13:58:52.391Z,1584
2017-03-08T14:00:03.992Z,1584
2017-03-08T14:01:15.605Z,1604
2017-03-08T14:02:28.658Z,1584
2017-03-08T14:03:40.529Z,1500
2017-03-08T14:04:51.909Z,1436
2017-03-08T14:06:05.514Z,1460
2017-03-08T14:07:17.247Z,1316
2017-03-08T14:08:28.777Z,1084
2017-03-08T14:09:39.934Z,1312
2017-03-08T14:10:50.897Z,1164
2017-03-08T14:12:01.628Z,1100
2017-03-08T14:13:13.306Z,1188
2017-03-08T14:14:24.996Z,1096
2017-03-08T14:15:36.234Z,1080
2017-03-08T14:16:49.121Z,1040
2017-03-08T14:18:02.076Z,1020
2017-03-08T14:19:12.708Z,1008
2017-03-08T14:20:23.705Z,1008
2017-03-08T14:21:35.659Z,1020
2017-03-08T14:22:49.224Z,968
2017-03-08T14:24:01.140Z,984
2017-03-08T14:25:12.687Z,940
2017-03-08T14:26:23.496Z,1016
2017-03-08T14:27:33.313Z,936
2017-03-08T14:28:43.088Z,956
2017-03-08T14:29:53.308Z,928
2017-03-08T14:31:03.125Z,924
2017-03-08T14:32:12.886Z,876
2017-03-08T14:33:22.651Z,744
2017-03-08T14:34:32.060Z,616
2017-03-08T14:35:42.258Z,728
2017-03-08T14:36:52.406Z,708
2017-03-08T14:38:02.615Z,652
2017-03-08T14:39:14.154Z,732
2017-03-08T14:40:23.934Z,696
2017-03-08T14:41:33.703Z,708
2017-03-08T14:42:43.524Z,672
2017-03-08T14:43:53.734Z,704
2017-03-08T14:45:03.066Z,636
2017-03-08T14:46:12.856Z,600
2017-03-08T14:47:22.285Z,668
2017-03-08T14:48:32.543Z,576
2017-03-08T14:49:42.320Z,688
2017-03-08T14:50:53.137Z,592
2017-03-08T14:52:03.338Z,588
2017-03-08T14:53:13.527Z,640
2017-03-08T14:54:23.617Z,816
2017-03-08T14:55:34.370Z,508
2017-03-08T14:56:45.035Z,420
2017-03-08T14:57:55.356Z,504
2017-03-08T14:59:05.478Z,424
2017-03-08T15:00:15.590Z,540
2017-03-08T15:01:25.339Z,544
2017-03-08T15:02:35.553Z,492
2017-03-08T15:03:45.313Z,440
2017-03-08T15:04:55.527Z,560
2017-03-08T15:06:05.937Z,424
2017-03-08T15:07:15.694Z,412
2017-03-08T15:08:25.352Z,512
2017-03-08T15:09:35.136Z,520
2017-03-08T15:10:44.897Z,500
2017-03-08T15:11:54.814Z,500
2017-03-08T15:13:04.580Z,460
2017-03-08T15:14:14.781Z,428
2017-03-08T15:15:24.987Z,460
2017-03-08T15:16:34.791Z,396
2017-03-08T15:17:44.323Z,432
2017-03-08T15:18:54.534Z,456
2017-03-08T15:20:04.983Z,508
2017-03-08T15:21:14.736Z,404
2017-03-08T15:22:24.950Z,400
2017-03-08T15:23:35.289Z,444
2017-03-08T15:24:45.524Z,324
2017-03-08T15:25:55.305Z,304
2017-03-08T15:27:05.177Z,284
2017-03-08T15:28:14.935Z,304
2017-03-08T15:29:25.188Z,316
2017-03-08T15:30:35.421Z,280
2017-03-08T15:31:44.771Z,304
2017-03-08T15:32:54.963Z,300
2017-03-08T15:34:04.290Z,308
2017-03-08T15:35:13.694Z,288
2017-03-08T15:36:23.467Z,324
2017-03-08T15:37:33.228Z,300
2017-03-08T15:38:43.072Z,288
2017-03-08T15:39:53.423Z,276
2017-03-08T15:41:03.408Z,300
2017-03-08T15:42:13.289Z,332
2017-03-08T15:43:23.207Z,312
2017-03-08T15:44:32.961Z,364
2017-03-08T15:45:43.936Z,344
2017-03-08T15:46:53.770Z,440
2017-03-08T15:48:04.408Z,372
2017-03-08T15:49:14.181Z,412
2017-03-08T15:50:23.950Z,420
2017-03-08T15:51:33.705Z,328
2017-03-08T15:52:44.848Z,392
2017-03-08T15:53:54.633Z,296
2017-03-08T15:55:04.847Z,312
2017-03-08T15:56:14.715Z,224
2017-03-08T15:57:24.501Z,268
2017-03-08T15:58:35.278Z,252
2017-03-08T15:59:45.028Z,276
2017-03-08T16:00:54.793Z,272
2017-03-08T16:02:04.722Z,260
2017-03-08T16:03:14.493Z,240
2017-03-08T16:04:24.756Z,284
2017-03-08T16:05:34.528Z,276
2017-03-08T16:06:45.787Z,232
2017-03-08T16:07:55.540Z,268
2017-03-08T16:09:05.313Z,248
2017-03-08T16:10:16.006Z,248
2017-03-08T16:11:26.236Z,252